Time;durP1;ratioP1;P1;durP2;ratioP2;P2;SDS_P1;SDS_P2;PMS_P1;PMS_P2;Temp;Humidity;BMP_temperature;BMP_pressure;BME280_temperature;BME280_humidity;BME280_pressure;Samples;Min_cycle;Max_cycle;Signal;HPM_P1;HPM_P2
2022/05/13 00:00:33;;;;;;;;;;;;;;;-140.72;100.00;52463.91;4974697;28;19929;-69
2022/05/13 00:02:59;;;;;;;;;;;;;;;-140.72;100.00;52486.22;4973640;28;19962;-69
2022/05/13 00:05:24;;;;;;;;;;;;;;;-140.72;100.00;52492.31;4974876;28;19919;-69
2022/05/13 00:07:50;;;;;;;;;;;;;;;-140.72;100.00;52480.16;4974778;28;19918;-68
2022/05/13 00:10:15;;;;;;;;;;;;;;;-140.72;100.00;52463.91;4973919;28;19925;-68
2022/05/13 00:12:40;;;;;;;;;;;;;;;-140.72;100.00;52478.13;4974575;28;20044;-69
2022/05/13 00:15:08;;;;;;;;;;;;;;;-140.72;100.00;52439.56;4973378;28;19969;-69
2022/05/13 00:17:34;;;;;;;;;;;;;;;-140.72;100.00;52492.31;4974163;28;20368;-69
2022/05/13 00:19:59;;;;;;;;;;;;;;;-140.72;100.00;52453.75;4974830;28;19926;-69
2022/05/13 00:22:30;;;;;;;;;;;;;;;-140.72;100.00;52508.56;4956658;28;19918;-69
2022/05/13 00:24:56;;;;;;;;;;;;;;;-140.72;100.00;52451.72;4974579;28;20369;-68
2022/05/13 00:27:39;;;;;;;;;;;;;;;-140.72;100.00;52482.16;4974029;28;19929;-69
2022/05/13 00:30:07;;;;;;;;;;;;;;;-140.72;100.00;52516.66;4974532;28;19993;-69
2022/05/13 00:32:32;;;;;;;;;;;;;;;-140.72;100.00;52476.09;4974590;28;20333;-69
2022/05/13 00:34:58;;;;;;;;;;;;;;;-140.72;100.00;52467.97;4973958;28;19958;-69
2022/05/13 00:37:23;;;;;;;;;;;;;;;-140.72;100.00;52486.22;4974631;28;19965;-69
2022/05/13 00:39:48;;;;;;;;;;;;;;;-140.72;100.00;52496.38;4972659;28;20009;-69
2022/05/13 00:42:14;;;;;;;;;;;;;;;-140.72;100.00;52459.84;4974039;28;19991;-69
2022/05/13 00:44:40;;;;;;;;;;;;;;;-140.72;100.00;52496.38;4974473;28;20029;-69
2022/05/13 00:47:06;;;;;;;;;;;;;;;-140.72;100.00;52492.31;4974558;28;19973;-69
2022/05/13 00:49:31;;;;;;;;;;;;;;;-140.72;100.00;52494.34;4956574;28;19930;-69
2022/05/13 00:51:57;;;;;;;;;;;;;;;-140.72;100.00;52498.41;4974403;28;19918;-68
2022/05/13 00:54:23;;;;;;;;;;;;;;;-140.72;100.00;52486.22;4973759;28;20416;-68
2022/05/13 00:56:48;;;;;;;;;;;;;;;-140.72;100.00;52492.31;4956610;28;19918;-68
2022/05/13 00:59:16;;;;;;;;;;;;;;;-140.72;100.00;52496.38;4973964;28;20250;-68
2022/05/13 01:01:41;;;;;;;;;;;;;;;-140.72;100.00;52504.50;4974308;28;19993;-68
2022/05/13 01:04:09;;;;;;;;;;;;;;;-140.72;100.00;52518.69;4956208;28;20338;-69
2022/05/13 01:06:34;;;;;;;;;;;;;;;-140.72;100.00;52488.25;4973623;28;21057;-68
2022/05/13 01:09:00;;;;;;;;;;;;;;;-140.72;100.00;52476.09;4973275;28;19961;-68
2022/05/13 01:11:27;;;;;;;;;;;;;;;-140.72;100.00;52474.06;4973162;28;20349;-69
2022/05/13 01:13:58;;;;;;;;;;;;;;;-140.72;100.00;52496.38;4977555;28;20021;-68
2022/05/13 01:16:24;;;;;;;;;;;;;;;-140.72;100.00;52486.22;4984200;28;19925;-68
2022/05/13 01:18:49;;;;;;;;;;;;;;;-140.72;100.00;52492.31;4990305;28;20301;-68
2022/05/13 01:21:19;;;;;;;;;;;;;;;-140.72;100.00;52506.53;4991495;28;20341;-68
2022/05/13 01:23:45;;;;;;;;;;;;;;;-140.72;100.00;52467.97;4980486;28;19985;-68
2022/05/13 01:26:11;;;;;;;;;;;;;;;-140.72;100.00;52504.50;4971645;28;19922;-68
2022/05/13 01:28:43;;;;;;;;;;;;;;;-140.72;100.00;52449.72;4985493;28;20370;-68
2022/05/13 01:31:11;;;;;;;;;;;;;;;-140.72;100.00;52508.56;4989345;28;19926;-68
2022/05/13 01:33:36;;;;;;;;;;;;;;;-140.72;100.00;52482.16;4984057;28;19926;-69
2022/05/13 01:36:04;;;;;;;;;;;;;;;-140.72;100.00;52470.00;4989331;28;19933;-68
2022/05/13 01:38:34;;;;;;;;;;;;;;;-140.72;100.00;52480.16;4984581;28;19922;-69
2022/05/13 01:41:01;;;;;;;;;;;;;;;-140.72;100.00;52508.56;4984348;28;19996;-69
2022/05/13 01:43:26;;;;;;;;;;;;;;;-140.72;100.00;52492.31;4995595;28;19925;-69
2022/05/13 01:45:52;;;;;;;;;;;;;;;-140.72;100.00;52498.41;4980338;28;19922;-69
2022/05/13 01:48:18;;;;;;;;;;;;;;;-140.72;100.00;52508.56;4987229;28;19918;-68
2022/05/13 01:50:43;;;;;;;;;;;;;;;-140.72;100.00;52492.31;4988191;28;20005;-68
2022/05/13 01:53:09;;;;;;;;;;;;;;;-140.72;100.00;52498.41;4980674;28;19962;-68
2022/05/13 01:55:34;;;;;;;;;;;;;;;-140.72;100.00;52447.69;4977283;28;19922;-69
2022/05/13 01:57:59;;;;;;;;;;;;;;;-140.72;100.00;52496.38;4975598;28;19922;-69
2022/05/13 02:00:25;;;;;;;;;;;;;;;-140.72;100.00;52476.09;4987753;28;19926;-69
2022/05/13 02:05:34;;;;;;;;;;;;;;;-140.72;100.00;52488.25;4996299;28;19929;-69
2022/05/13 02:07:59;;;;;;;;;;;;;;;-140.72;100.00;52498.41;4983233;28;19921;-69
2022/05/13 02:10:25;;;;;;;;;;;;;;;-140.72;100.00;52488.25;4986293;28;19925;-69
2022/05/13 02:12:50;;;;;;;;;;;;;;;-140.72;100.00;52482.16;4986314;28;20328;-69
2022/05/13 02:15:16;;;;;;;;;;;;;;;-140.72;100.00;52498.41;4996316;28;20017;-68
2022/05/13 02:17:41;;;;;;;;;;;;;;;-140.72;100.00;52443.63;4978936;28;19980;-69
2022/05/13 02:20:07;;;;;;;;;;;;;;;-140.72;100.00;52500.44;4996432;28;20005;-69
2022/05/13 02:22:32;;;;;;;;;;;;;;;-140.72;100.00;52467.97;4992565;28;19926;-68
2022/05/13 02:24:58;;;;;;;;;;;;;;;-140.72;100.00;52490.28;4976799;28;19956;-69
2022/05/13 02:27:23;;;;;;;;;;;;;;;-140.72;100.00;52484.19;4980437;28;19918;-69
2022/05/13 02:29:48;;;;;;;;;;;;;;;-140.72;100.00;52504.50;4984145;28;19918;-69
2022/05/13 02:32:13;;;;;;;;;;;;;;;-140.72;100.00;52467.97;4979303;28;19919;-69
2022/05/13 02:34:39;;;;;;;;;;;;;;;-140.72;100.00;52508.56;5148981;23;19932;-68
2022/05/13 02:37:04;;;;;;;;;;;;;;;-140.72;100.00;52526.81;5013021;28;19917;-69
2022/05/13 02:39:29;;;;;;;;;;;;;;;-140.72;100.00;52498.41;5017129;28;19917;-68
2022/05/13 02:41:54;;;;;;;;;;;;;;;-140.72;100.00;52534.94;5034928;28;20376;-69
2022/05/13 02:44:21;;;;;;;;;;;;;;;-140.72;100.00;52494.34;5017230;28;19917;-69
2022/05/13 02:46:47;;;;;;;;;;;;;;;-140.72;100.00;52476.09;5035157;28;20280;-69
2022/05/13 02:49:14;;;;;;;;;;;;;;;-140.72;100.00;52484.19;5031361;28;19937;-69
2022/05/13 02:51:40;;;;;;;;;;;;;;;-140.72;100.00;52490.28;5026361;28;19917;-69
2022/05/13 02:57:08;;;;;;;;;;;;;;;-140.72;100.00;52467.97;5019114;28;19928;-70
2022/05/13 02:59:34;;;;;;;;;;;;;;;-140.72;100.00;52486.22;5034580;28;19925;-69
2022/05/13 03:01:59;;;;;;;;;;;;;;;-140.72;100.00;52494.34;5016597;28;19990;-69
2022/05/13 03:04:24;;;;;;;;;;;;;;;-140.72;100.00;52506.53;5034654;28;20410;-69
2022/05/13 03:06:50;;;;;;;;;;;;;;;-140.72;100.00;52494.34;5016642;28;19924;-69
2022/05/13 03:09:15;;;;;;;;;;;;;;;-140.72;100.00;52516.66;5016389;28;19948;-69
2022/05/13 03:11:40;;;;;;;;;;;;;;;-140.72;100.00;52524.78;5016525;28;20008;-69
2022/05/13 03:14:05;;;;;;;;;;;;;;;-140.72;100.00;52520.72;5016615;28;19921;-68
2022/05/13 03:16:31;;;;;;;;;;;;;;;-140.72;100.00;52504.50;5016413;28;20584;-69
2022/05/13 03:18:58;;;;;;;;;;;;;;;-140.72;100.00;52484.19;5016107;28;19917;-69
2022/05/13 03:21:24;;;;;;;;;;;;;;;-140.72;100.00;52534.94;5034393;28;19963;-69
2022/05/13 03:23:49;;;;;;;;;;;;;;;-140.72;100.00;52476.09;5016612;28;19917;-69
2022/05/13 03:26:16;;;;;;;;;;;;;;;-140.72;100.00;52518.69;5016332;28;19940;-69
2022/05/13 03:28:41;;;;;;;;;;;;;;;-140.72;100.00;52516.66;5026978;28;19917;-69
2022/05/13 03:31:06;;;;;;;;;;;;;;;-140.72;100.00;52496.38;5016491;28;20426;-69
2022/05/13 03:33:32;;;;;;;;;;;;;;;-140.72;100.00;52488.25;5015833;28;19924;-69
2022/05/13 03:35:57;;;;;;;;;;;;;;;-140.72;100.00;52522.75;5033609;28;19925;-69
2022/05/13 03:38:22;;;;;;;;;;;;;;;-140.72;100.00;52516.66;5033270;28;19924;-69
2022/05/13 03:40:48;;;;;;;;;;;;;;;-140.72;100.00;52498.41;5033113;28;20368;-69
2022/05/13 03:43:13;;;;;;;;;;;;;;;-140.72;100.00;52467.97;5015199;28;19947;-69
2022/05/13 03:45:39;;;;;;;;;;;;;;;-140.72;100.00;52549.13;5033091;28;19963;-69
2022/05/13 03:48:04;;;;;;;;;;;;;;;-140.72;100.00;52516.66;5011216;28;19991;-69
2022/05/13 03:50:30;;;;;;;;;;;;;;;-140.72;100.00;52514.63;5015581;28;19996;-69
2022/05/13 03:52:55;;;;;;;;;;;;;;;-140.72;100.00;52514.63;5033267;28;19928;-69
2022/05/13 03:55:20;;;;;;;;;;;;;;;-140.72;100.00;52526.81;5033190;28;19917;-69
2022/05/13 03:57:46;;;;;;;;;;;;;;;-140.72;100.00;52480.16;5015327;28;19924;-69
2022/05/13 04:00:12;;;;;;;;;;;;;;;-140.72;100.00;52496.38;5015336;28;19917;-69
2022/05/13 04:02:37;;;;;;;;;;;;;;;-140.72;100.00;52488.25;5015207;28;19942;-69
2022/05/13 04:10:31;;;;;;;;;;;;;;;-140.72;100.00;52510.59;5033545;28;19986;-69
2022/05/13 04:18:24;;;;;;;;;;;;;;;-140.72;100.00;52500.44;5033213;28;19927;-69
2022/05/13 04:20:50;;;;;;;;;;;;;;;-140.72;100.00;52496.38;5014602;28;20008;-71
2022/05/13 04:23:16;;;;;;;;;;;;;;;-140.72;100.00;52470.00;5016800;28;19917;-71
2022/05/13 04:25:41;;;;;;;;;;;;;;;-140.72;100.00;52490.28;5036414;28;19917;-70
2022/05/13 04:28:06;;;;;;;;;;;;;;;-140.72;100.00;52543.03;5038070;28;19932;-70
2022/05/13 04:30:32;;;;;;;;;;;;;;;-140.72;100.00;52516.66;5018770;28;20387;-73
2022/05/13 04:32:57;;;;;;;;;;;;;;;-140.72;100.00;52500.44;5014878;28;19917;-76
2022/05/13 04:35:22;;;;;;;;;;;;;;;-140.72;100.00;52467.97;5031658;28;19922;-74
2022/05/13 04:37:47;;;;;;;;;;;;;;;-140.72;100.00;52472.03;5032595;28;19928;-74
2022/05/13 04:40:13;;;;;;;;;;;;;;;-140.72;100.00;52516.66;5014940;28;19918;-74
2022/05/13 04:42:50;;;;;;;;;;;;;;;-140.72;100.00;52453.75;5014943;28;20047;-78
2022/05/13 04:45:24;;;;;;;;;;;;;;;-140.72;100.00;52484.19;4995807;28;20352;-74
2022/05/13 04:50:34;;;;;;;;;;;;;;;-140.72;100.00;52488.25;5027857;28;19971;-74
2022/05/13 04:52:59;;;;;;;;;;;;;;;-140.72;100.00;52488.25;5008987;28;19968;-74
2022/05/13 04:55:25;;;;;;;;;;;;;;;-140.72;100.00;52496.38;5016831;28;19921;-73
2022/05/13 04:57:51;;;;;;;;;;;;;;;-140.72;100.00;52498.41;4996170;28;19921;-74
2022/05/13 05:00:16;;;;;;;;;;;;;;;-140.72;100.00;52463.91;5014265;28;19917;-73
2022/05/13 05:02:41;;;;;;;;;;;;;;;-140.72;100.00;52476.09;5012388;28;19967;-74
2022/05/13 05:05:06;;;;;;;;;;;;;;;-140.72;100.00;52484.19;5015909;28;19917;-74
2022/05/13 05:07:32;;;;;;;;;;;;;;;-140.72;100.00;52478.13;5035204;28;20283;-68
2022/05/13 05:09:57;;;;;;;;;;;;;;;-140.72;100.00;52520.72;5017678;28;19943;-69
2022/05/13 05:12:22;;;;;;;;;;;;;;;-140.72;100.00;52467.97;5036044;28;19954;-69
2022/05/13 05:14:47;;;;;;;;;;;;;;;-140.72;100.00;52472.03;5018808;28;19921;-69
2022/05/13 05:17:12;;;;;;;;;;;;;;;-140.72;100.00;52470.00;5039427;28;20339;-72
2022/05/13 05:19:38;;;;;;;;;;;;;;;-140.72;100.00;52445.66;5038770;28;19973;-72
2022/05/13 05:22:05;;;;;;;;;;;;;;;-140.72;100.00;52480.16;5016860;28;20024;-72
2022/05/13 05:24:30;;;;;;;;;;;;;;;-140.72;100.00;52512.59;5037077;28;19921;-73
2022/05/13 05:26:55;;;;;;;;;;;;;;;-140.72;100.00;52498.41;5039164;28;19994;-71
2022/05/13 05:29:21;;;;;;;;;;;;;;;-140.72;100.00;52463.91;5020714;28;20343;-72
2022/05/13 05:31:46;;;;;;;;;;;;;;;-140.72;100.00;52484.19;5020984;28;20012;-71
2022/05/13 05:34:12;;;;;;;;;;;;;;;-140.72;100.00;52474.06;5036479;28;20433;-70
2022/05/13 05:36:37;;;;;;;;;;;;;;;-140.72;100.00;52463.91;5020447;28;20380;-71
2022/05/13 05:39:02;;;;;;;;;;;;;;;-140.72;100.00;52472.03;5011638;28;19920;-72
2022/05/13 05:41:28;;;;;;;;;;;;;;;-140.72;100.00;52480.16;5012013;28;19921;-72
2022/05/13 05:43:53;;;;;;;;;;;;;;;-140.72;100.00;52465.94;5017776;28;19967;-71
2022/05/13 05:46:18;;;;;;;;;;;;;;;-140.72;100.00;52433.47;5004513;28;20024;-71
2022/05/13 05:48:43;;;;;;;;;;;;;;;-140.72;100.00;52411.16;5022230;28;19917;-69
2022/05/13 05:51:09;;;;;;;;;;;;;;;-140.72;100.00;52451.72;5018628;28;19917;-70
2022/05/13 05:59:03;;;;;;;;;;;;;;;-140.72;100.00;52457.81;5029444;28;19932;-69
2022/05/13 06:01:28;;;;;;;;;;;;;;;-140.72;100.00;52411.16;5032290;28;20447;-69
2022/05/13 06:03:53;;;;;;;;;;;;;;;-140.72;100.00;52427.38;5011946;28;19917;-68
2022/05/13 06:06:19;;;;;;;;;;;;;;;-140.72;100.00;52435.50;5022584;28;19921;-69
2022/05/13 06:08:44;;;;;;;;;;;;;;;-140.72;100.00;52472.03;5006470;28;19925;-69
2022/05/13 06:11:09;;;;;;;;;;;;;;;-140.72;100.00;52461.88;5023658;28;19960;-70
2022/05/13 06:13:35;;;;;;;;;;;;;;;-140.72;100.00;52431.44;5011490;28;19921;-70
2022/05/13 06:16:00;;;;;;;;;;;;;;;-140.72;100.00;52472.03;5022681;28;20285;-69
2022/05/13 06:18:25;;;;;;;;;;;;;;;-140.72;100.00;52443.63;5019001;28;19924;-69
2022/05/13 06:20:51;;;;;;;;;;;;;;;-140.72;100.00;52449.72;5005126;28;20012;-69
2022/05/13 06:23:16;;;;;;;;;;;;;;;-140.72;100.00;52472.03;5028320;28;19928;-69
2022/05/13 06:25:41;;;;;;;;;;;;;;;-140.72;100.00;52431.44;5028628;28;19918;-69
2022/05/13 06:28:07;;;;;;;;;;;;;;;-140.72;100.00;52474.06;5029862;28;19918;-68
2022/05/13 06:30:34;;;;;;;;;;;;;;;-140.72;100.00;52463.91;5008925;28;20016;-68
2022/05/13 06:32:59;;;;;;;;;;;;;;;-140.72;100.00;52463.91;5035121;28;19967;-68
2022/05/13 06:35:25;;;;;;;;;;;;;;;-140.72;100.00;52457.81;5033985;28;19921;-69
2022/05/13 06:37:51;;;;;;;;;;;;;;;-140.72;100.00;52457.81;5031428;28;19918;-70
2022/05/13 06:40:17;;;;;;;;;;;;;;;-140.72;100.00;52455.78;5033205;28;19928;-72
2022/05/13 06:42:42;;;;;;;;;;;;;;;-140.72;100.00;52439.56;5013640;28;19939;-72
2022/05/13 06:45:08;;;;;;;;;;;;;;;-140.72;100.00;52429.41;5026411;28;20416;-72
2022/05/13 06:47:33;;;;;;;;;;;;;;;-140.72;100.00;52423.31;5014543;28;19928;-72
2022/05/13 06:50:00;;;;;;;;;;;;;;;-140.72;100.00;52415.22;5012358;28;19978;-71
2022/05/13 06:52:25;;;;;;;;;;;;;;;-140.72;100.00;52427.38;5046364;28;19940;-71
2022/05/13 06:54:50;;;;;;;;;;;;;;;-140.72;100.00;52449.72;5020775;28;19947;-71
2022/05/13 06:57:15;;;;;;;;;;;;;;;-140.72;100.00;52447.69;5000811;28;19921;-71
2022/05/13 06:59:40;;;;;;;;;;;;;;;-140.72;100.00;52417.25;5017018;28;19991;-72
2022/05/13 07:02:06;;;;;;;;;;;;;;;-140.72;100.00;52455.78;5035282;28;19917;-72
2022/05/13 07:04:32;;;;;;;;;;;;;;;-140.72;100.00;52407.09;5016059;28;19925;-72
2022/05/13 07:06:59;;;;;;;;;;;;;;;-140.72;100.00;52417.25;5034302;28;19995;-73
2022/05/13 07:09:24;;;;;;;;;;;;;;;-140.72;100.00;52447.69;5010874;28;19990;-69
2022/05/13 07:11:50;;;;;;;;;;;;;;;-140.72;100.00;52413.19;5015708;28;19925;-69
2022/05/13 07:14:16;;;;;;;;;;;;;;;-140.72;100.00;52439.56;5012315;28;20301;-69
2022/05/13 07:16:41;;;;;;;;;;;;;;;-140.72;100.00;52419.28;5009960;28;19921;-69
2022/05/13 07:19:06;;;;;;;;;;;;;;;-140.72;100.00;52394.91;5027309;28;19925;-69
2022/05/13 07:21:31;;;;;;;;;;;;;;;-140.72;100.00;52425.34;5030408;28;19921;-70
2022/05/13 07:23:56;;;;;;;;;;;;;;;-140.72;100.00;52413.19;5030376;28;19917;-67
2022/05/13 07:26:22;;;;;;;;;;;;;;;-140.72;100.00;52403.03;5007748;28;19929;-68
2022/05/13 07:28:47;;;;;;;;;;;;;;;-140.72;100.00;52425.34;5026454;28;19917;-68
2022/05/13 07:31:12;;;;;;;;;;;;;;;-140.72;100.00;52419.28;5012359;28;19921;-69
2022/05/13 07:33:38;;;;;;;;;;;;;;;-140.72;100.00;52419.28;5011323;28;21637;-69
2022/05/13 07:36:03;;;;;;;;;;;;;;;-140.72;100.00;52411.16;5029206;28;19925;-68
2022/05/13 07:38:30;;;;;;;;;;;;;;;-140.72;100.00;52433.47;5028153;28;19957;-68
2022/05/13 07:43:40;;;;;;;;;;;;;;;-140.72;100.00;52427.38;5030114;28;19936;-68
2022/05/13 07:46:06;;;;;;;;;;;;;;;-140.72;100.00;52413.19;5007021;28;19928;-68
2022/05/13 07:48:31;;;;;;;;;;;;;;;-140.72;100.00;52398.97;5021634;28;19971;-68
2022/05/13 07:50:57;;;;;;;;;;;;;;;-140.72;100.00;52407.09;5022532;28;19929;-69
2022/05/13 07:53:22;;;;;;;;;;;;;;;-140.72;100.00;52386.81;5001749;28;20353;-68
2022/05/13 07:55:47;;;;;;;;;;;;;;;-140.72;100.00;52334.03;5011549;28;20419;-68
2022/05/13 07:58:12;;;;;;;;;;;;;;;-140.72;100.00;52382.75;5021500;28;20351;-69
2022/05/13 08:00:38;;;;;;;;;;;;;;;-140.72;100.00;52370.56;5011651;28;19925;-68
2022/05/13 08:03:08;;;;;;;;;;;;;;;-140.72;100.00;52354.34;5027347;28;19944;-69
2022/05/13 08:05:37;;;;;;;;;;;;;;;-140.72;100.00;52366.50;5027270;28;19932;-68
2022/05/13 08:08:30;;;;;;;;;;;;;;;-140.72;100.00;52372.59;5004322;28;19925;-69
2022/05/13 08:10:57;;;;;;;;;;;;;;;-140.72;100.00;52358.41;4997213;28;19929;-68
2022/05/13 08:13:23;;;;;;;;;;;;;;;-140.72;100.00;52398.97;5018139;28;19918;-71
2022/05/13 08:15:49;;;;;;;;;;;;;;;-140.72;100.00;52366.50;5029700;28;19920;-69
2022/05/13 08:18:15;;;;;;;;;;;;;;;-140.72;100.00;52394.91;5031166;28;20336;-68
2022/05/13 08:20:40;;;;;;;;;;;;;;;-140.72;100.00;52364.47;5028101;28;20351;-68
2022/05/13 08:23:06;;;;;;;;;;;;;;;-140.72;100.00;52401.00;5027787;28;19929;-68
2022/05/13 08:25:31;;;;;;;;;;;;;;;-140.72;100.00;52366.50;5009797;28;20040;-68
2022/05/13 08:27:56;;;;;;;;;;;;;;;-140.72;100.00;52334.03;5028885;28;19917;-68
2022/05/13 08:30:22;;;;;;;;;;;;;;;-140.72;100.00;52425.34;5025457;28;19917;-68
2022/05/13 08:32:47;;;;;;;;;;;;;;;-140.72;100.00;52382.75;5021912;28;19944;-68
2022/05/13 08:35:13;;;;;;;;;;;;;;;-140.72;100.00;52338.09;5029975;28;19928;-68
2022/05/13 08:37:42;;;;;;;;;;;;;;;-140.72;100.00;52334.03;5031752;28;20327;-67
2022/05/13 08:40:12;;;;;;;;;;;;;;;-140.72;100.00;52340.13;5008714;28;19925;-68
2022/05/13 08:42:42;;;;;;;;;;;;;;;-140.72;100.00;52342.16;5024685;28;19917;-68
2022/05/13 08:45:09;;;;;;;;;;;;;;;-140.72;100.00;52390.84;5015365;28;19918;-68
2022/05/13 08:47:39;;;;;;;;;;;;;;;-140.72;100.00;52295.50;5029762;28;19917;-68
2022/05/13 08:50:04;;;;;;;;;;;;;;;-140.72;100.00;52323.91;5011443;28;19930;-68
2022/05/13 08:55:30;;;;;;;;;;;;;;;-140.72;100.00;52273.19;5030375;28;20403;-67
2022/05/13 08:57:57;;;;;;;;;;;;;;;-140.72;100.00;52261.00;5009383;28;20280;-68
2022/05/13 09:00:42;;;;;;;;;;;;;;;-140.72;100.00;52248.81;5008048;28;19990;-69
2022/05/13 09:03:16;;;;;;;;;;;;;;;-140.72;100.00;52222.44;5003687;28;19962;-69
2022/05/13 09:05:51;;;;;;;;;;;;;;;-140.72;100.00;52252.88;5014728;28;19947;-69
2022/05/13 09:08:16;;;;;;;;;;;;;;;-140.72;100.00;52338.09;4993517;28;19925;-70
2022/05/13 09:10:53;;;;;;;;;;;;;;;-140.72;100.00;52407.09;5025829;28;19972;-69
2022/05/13 09:13:25;;;;;;;;;;;;;;;-140.72;100.00;52297.53;5022913;28;19932;-69
2022/05/13 09:15:52;;;;;;;;;;;;;;;-140.72;100.00;52248.81;5026377;28;19925;-69
2022/05/13 09:18:23;;;;;;;;;;;;;;;-140.72;100.00;52244.78;5009872;28;19917;-69
2022/05/13 09:20:50;;;;;;;;;;;;;;;-140.72;100.00;52293.47;5011362;28;19929;-69
2022/05/13 09:23:16;;;;;;;;;;;;;;;-140.72;100.00;52232.59;5030373;28;19971;-69
2022/05/13 09:25:57;;;;;;;;;;;;;;;-140.72;100.00;52244.78;5013659;28;19924;-70
2022/05/13 09:28:22;;;;;;;;;;;;;;;-140.72;100.00;52299.56;5031160;28;19921;-69
2022/05/13 09:30:50;;;;;;;;;;;;;;;-140.72;100.00;52299.56;5026254;28;19921;-69
2022/05/13 09:33:24;;;;;;;;;;;;;;;-140.72;100.00;52265.06;5030220;28;19921;-70
2022/05/13 09:35:52;;;;;;;;;;;;;;;-140.72;100.00;52246.78;5017366;28;19973;-70
2022/05/13 09:38:19;;;;;;;;;;;;;;;-140.72;100.00;52238.69;5018733;28;20023;-70
2022/05/13 09:41:04;;;;;;;;;;;;;;;-140.72;100.00;52242.75;5035584;28;19982;-69
2022/05/13 09:43:34;;;;;;;;;;;;;;;-140.72;100.00;52151.44;5010605;28;20339;-69
2022/05/13 09:46:08;;;;;;;;;;;;;;;-140.72;100.00;52157.53;5031465;28;20300;-69
2022/05/13 09:48:35;;;;;;;;;;;;;;;-140.72;100.00;52155.50;5019523;28;19979;-69
2022/05/13 09:51:19;;;;;;;;;;;;;;;-140.72;100.00;52232.59;5019317;28;19917;-69
2022/05/13 09:53:58;;;;;;;;;;;;;;;-140.72;100.00;52185.94;5038213;28;19921;-69
2022/05/13 09:56:23;;;;;;;;;;;;;;;-140.72;100.00;52153.47;5034227;28;19928;-70
2022/05/13 09:58:50;;;;;;;;;;;;;;;-140.72;100.00;52045.94;5033869;28;20368;-70
2022/05/13 10:01:20;;;;;;;;;;;;;;;-140.72;100.00;52163.59;5033724;28;19992;-70
2022/05/13 10:03:59;;;;;;;;;;;;;;;-140.72;100.00;52131.16;5036468;28;19921;-69
2022/05/13 10:06:26;;;;;;;;;;;;;;;-140.72;100.00;52141.28;5036752;28;20248;-69
2022/05/13 10:08:51;;;;;;;;;;;;;;;-140.72;100.00;52041.88;5039171;28;19940;-70
2022/05/13 10:14:08;;;;;;;;;;;;;;;-140.72;100.00;52155.50;5037028;28;20395;-69
2022/05/13 10:16:34;;;;;;;;;;;;;;;-140.72;100.00;52139.25;5016398;28;19918;-71
2022/05/13 10:19:04;;;;;;;;;;;;;;;-140.72;100.00;52189.97;5013924;28;19932;-69
2022/05/13 10:21:35;;;;;;;;;;;;;;;-140.72;100.00;52074.34;5020762;28;19921;-69
2022/05/13 10:24:06;;;;;;;;;;;;;;;-140.72;100.00;52185.94;5021715;28;19925;-69
2022/05/13 10:26:35;;;;;;;;;;;;;;;-140.72;100.00;52090.56;5039180;28;20307;-69
2022/05/13 10:29:16;;;;;;;;;;;;;;;-140.72;100.00;52070.28;5021241;28;19925;-69
2022/05/13 10:31:42;;;;;;;;;;;;;;;-140.72;100.00;51997.22;5038747;28;19917;-69
2022/05/13 10:34:10;;;;;;;;;;;;;;;-140.72;100.00;52013.47;5014395;28;19921;-68
2022/05/13 10:36:43;;;;;;;;;;;;;;;-140.72;100.00;51942.44;5031653;28;20373;-69
2022/05/13 10:39:45;;;;;;;;;;;;;;;-140.72;100.00;52001.28;5030055;28;19921;-69
2022/05/13 10:42:19;;;;;;;;;;;;;;;-140.72;100.00;51954.63;4959141;28;20417;-69
2022/05/13 10:44:51;;;;;;;;;;;;;;;-140.72;100.00;51966.81;5008294;28;19928;-70
2022/05/13 10:47:30;;;;;;;;;;;;;;;-140.72;100.00;52025.63;5026580;28;19917;-69
2022/05/13 10:49:55;;;;;;;;;;;;;;;-140.72;100.00;51989.13;5021009;28;19956;-69
2022/05/13 10:52:23;;;;;;;;;;;;;;;-140.72;100.00;52169.69;5033044;28;19921;-71
2022/05/13 10:54:51;;;;;;;;;;;;;;;-140.72;100.00;52037.81;5038932;28;19988;-71
2022/05/13 10:57:23;;;;;;;;;;;;;;;-140.72;100.00;52007.38;5035239;28;19929;-70
2022/05/13 11:00:11;;;;;;;;;;;;;;;-140.72;100.00;52025.63;5043068;28;20440;-68
2022/05/13 11:02:48;;;;;;;;;;;;;;;-140.72;100.00;51995.19;5027677;28;20384;-70
2022/05/13 11:05:19;;;;;;;;;;;;;;;-140.72;100.00;51948.53;5004778;28;19922;-68
2022/05/13 11:07:47;;;;;;;;;;;;;;;-140.72;100.00;51985.06;5025755;28;19940;-68
2022/05/13 11:10:32;;;;;;;;;;;;;;;-140.72;100.00;51991.16;5020404;28;19924;-68
2022/05/13 11:13:09;;;;;;;;;;;;;;;-140.72;100.00;52114.91;5004218;28;20012;-70
2022/05/13 11:15:41;;;;;;;;;;;;;;;-140.72;100.00;52145.34;5004468;28;19918;-68
2022/05/13 11:18:18;;;;;;;;;;;;;;;-140.72;100.00;52171.72;5021989;28;20254;-68
2022/05/13 11:20:57;;;;;;;;;;;;;;;-140.72;100.00;52171.72;4998140;28;19941;-71
2022/05/13 11:23:27;;;;;;;;;;;;;;;-140.72;100.00;52175.78;5026634;28;20001;-68
2022/05/13 11:26:15;;;;;;;;;;;;;;;-140.72;100.00;52070.28;5021762;28;20287;-69
2022/05/13 11:28:54;;;;;;;;;;;;;;;-140.72;100.00;52017.53;5028882;28;19986;-70
2022/05/13 11:31:28;;;;;;;;;;;;;;;-140.72;100.00;52084.47;5016395;28;20359;-69
2022/05/13 11:34:12;;;;;;;;;;;;;;;-140.72;100.00;52135.19;5017160;28;19921;-68
2022/05/13 11:36:44;;;;;;;;;;;;;;;-140.72;100.00;52098.69;5033992;28;19929;-69
2022/05/13 11:39:48;;;;;;;;;;;;;;;-140.72;100.00;52236.66;5016699;28;20402;-68
2022/05/13 11:42:13;;;;;;;;;;;;;;;-140.72;100.00;52242.75;4942087;28;19923;-70
2022/05/13 11:44:57;;;;;;;;;;;;;;;-140.72;100.00;52196.06;4953482;28;19938;-68
2022/05/13 11:47:39;;;;;;;;;;;;;;;-140.72;100.00;52108.81;4999226;28;20295;-67
2022/05/13 11:50:05;;;;;;;;;;;;;;;-140.72;100.00;52187.97;5015470;28;20373;-69
2022/05/13 11:52:43;;;;;;;;;;;;;;;-140.72;100.00;52129.13;5016242;28;19924;-67
2022/05/13 11:55:21;;;;;;;;;;;;;;;-140.72;100.00;52149.41;5014741;28;20250;-68
2022/05/13 11:57:48;;;;;;;;;;;;;;;-140.72;100.00;52118.97;5050119;28;20271;-70
2022/05/13 12:00:33;;;;;;;;;;;;;;;-140.72;100.00;52110.84;5022360;28;19960;-71
2022/05/13 12:03:08;;;;;;;;;;;;;;;-140.72;100.00;52003.31;5034177;28;19980;-68
2022/05/13 12:05:40;;;;;;;;;;;;;;;-140.72;100.00;52056.06;5018413;28;19917;-69
2022/05/13 12:08:15;;;;;;;;;;;;;;;-140.72;100.00;51972.88;5017626;28;19929;-71
2022/05/13 12:10:56;;;;;;;;;;;;;;;-140.72;100.00;51936.38;5020222;28;19953;-68
2022/05/13 12:13:21;;;;;;;;;;;;;;;-140.72;100.00;51930.28;5023800;28;19921;-69
2022/05/13 12:15:57;;;;;;;;;;;;;;;-140.72;100.00;52074.34;5019316;28;19927;-69
2022/05/13 12:18:28;;;;;;;;;;;;;;;-140.72;100.00;52017.53;5024213;28;19961;-69
2022/05/13 12:21:02;;;;;;;;;;;;;;;-140.72;100.00;52098.69;5004927;28;19917;-69
2022/05/13 12:23:33;;;;;;;;;;;;;;;-140.72;100.00;52100.72;5019273;28;19917;-69
2022/05/13 12:26:02;;;;;;;;;;;;;;;-140.72;100.00;51948.53;5019936;28;20272;-70
2022/05/13 12:28:30;;;;;;;;;;;;;;;-140.72;100.00;52001.28;5007088;28;19921;-68
2022/05/13 12:30:55;;;;;;;;;;;;;;;-140.72;100.00;51972.88;5008970;28;20360;-69
2022/05/13 12:33:20;;;;;;;;;;;;;;;-140.72;100.00;51928.25;5020156;28;21586;-68
2022/05/13 12:38:52;;;;;;;;;;;;;;;-140.72;100.00;52025.63;5018851;28;19988;-70
2022/05/13 12:41:22;;;;;;;;;;;;;;;-140.72;100.00;52078.38;5030357;28;19917;-71
2022/05/13 12:43:47;;;;;;;;;;;;;;;-140.72;100.00;52019.56;5023966;28;19925;-68
2022/05/13 12:46:14;;;;;;;;;;;;;;;-140.72;100.00;52141.28;5021521;28;19970;-69
2022/05/13 12:48:58;;;;;;;;;;;;;;;-140.72;100.00;52151.44;5025121;28;20029;-70
2022/05/13 12:51:31;;;;;;;;;;;;;;;-140.72;100.00;52149.41;5018206;28;19980;-70
2022/05/13 12:53:57;;;;;;;;;;;;;;;-140.72;100.00;51993.19;5026660;28;19921;-69
2022/05/13 12:56:25;;;;;;;;;;;;;;;-140.72;100.00;52206.22;5035320;28;19917;-70
2022/05/13 12:58:56;;;;;;;;;;;;;;;-140.72;100.00;52228.53;5052083;28;20419;-70